Time;durP1;ratioP1;P1;durP2;ratioP2;P2;SDS_P1;SDS_P2;PMS_P1;PMS_P2;Temp;Humidity;BMP_temperature;BMP_pressure;BME280_temperature;BME280_humidity;BME280_pressure;Samples;Min_cycle;Max_cycle;Signal;HPM_P1;HPM_P2
2021/06/20 00:00:37;;;;;;;16.30;13.65;;;19.00;99.90;;;;;;5005490;28;20082;-84
2021/06/20 00:03:04;;;;;;;22.45;18.75;;;19.00;99.90;;;;;;4988999;28;20107;-84
2021/06/20 00:05:33;;;;;;;20.95;18.13;;;19.00;99.90;;;;;;5005079;28;20189;-84
2021/06/20 00:45:02;;;;;;;17.75;15.85;;;19.20;99.90;;;;;;5026746;28;20033;-84
2021/06/20 00:47:28;;;;;;;21.70;18.63;;;19.20;99.90;;;;;;5018004;28;20037;-83
2021/06/20 00:49:54;;;;;;;21.25;18.00;;;19.20;99.90;;;;;;5033183;28;20410;-83
2021/06/20 00:52:19;;;;;;;20.33;16.75;;;19.30;99.90;;;;;;5021197;28;20048;-84
2021/06/20 00:54:48;;;;;;;18.75;15.18;;;19.30;99.90;;;;;;5033987;28;20045;-84
2021/06/20 00:57:20;;;;;;;16.45;13.38;;;19.40;99.90;;;;;;5019729;28;20091;-84
2021/06/20 00:59:47;;;;;;;12.13;10.90;;;19.50;99.90;;;;;;5021735;28;20038;-83
2021/06/20 01:02:13;;;;;;;13.07;9.85;;;19.60;99.90;;;;;;5016121;28;20036;-85
2021/06/20 01:04:40;;;;;;;11.52;8.18;;;19.70;99.90;;;;;;5018974;28;20069;-84
2021/06/20 01:07:05;;;;;;;8.57;7.13;;;19.70;99.90;;;;;;5035306;28;20034;-83
2021/06/20 01:09:31;;;;;;;8.07;7.25;;;19.90;99.90;;;;;;5035318;28;20069;-84
2021/06/20 01:11:57;;;;;;;8.48;7.68;;;19.90;99.90;;;;;;5022664;28;20037;-83
2021/06/20 01:14:23;;;;;;;10.07;6.45;;;20.00;99.90;;;;;;5036142;28;20026;-84
2021/06/20 01:16:50;;;;;;;6.70;5.57;;;19.90;99.90;;;;;;5037265;28;20631;-84
2021/06/20 01:19:19;;;;;;;7.65;6.60;;;20.00;99.90;;;;;;5034539;28;20030;-83
2021/06/20 01:21:45;;;;;;;6.57;5.90;;;20.00;99.90;;;;;;5035113;28;20030;-85
2021/06/20 01:24:11;;;;;;;6.40;5.40;;;20.00;99.90;;;;;;5021362;28;20026;-84
2021/06/20 01:26:36;;;;;;;5.70;5.10;;;20.00;99.90;;;;;;5019774;28;20030;-84
2021/06/20 01:29:04;;;;;;;6.63;5.47;;;20.00;99.90;;;;;;5023853;28;20018;-83
2021/06/20 01:31:35;;;;;;;7.38;6.65;;;20.10;99.90;;;;;;5022123;28;20034;-84
2021/06/20 01:34:01;;;;;;;5.53;5.03;;;20.10;99.90;;;;;;5037470;28;20036;-85
2021/06/20 01:36:28;;;;;;;4.90;4.50;;;20.00;99.90;;;;;;5021219;28;20060;-84
2021/06/20 01:38:54;;;;;;;8.02;6.20;;;20.00;99.90;;;;;;5023761;28;20030;-83
2021/06/20 01:41:20;;;;;;;5.07;4.60;;;20.00;99.90;;;;;;5034869;28;20039;-83
2021/06/20 01:43:45;;;;;;;9.43;6.35;;;20.10;99.90;;;;;;5037573;28;20333;-83
2021/06/20 01:46:11;;;;;;;6.78;6.15;;;20.00;99.90;;;;;;5023670;28;20073;-83
2021/06/20 01:48:36;;;;;;;7.97;6.05;;;20.10;99.90;;;;;;5024713;28;20501;-83
2021/06/20 01:51:06;;;;;;;6.35;5.70;;;20.10;99.90;;;;;;5044748;28;20026;-83
2021/06/20 01:53:32;;;;;;;8.63;6.75;;;20.00;99.90;;;;;;5040387;28;20049;-83
2021/06/20 01:55:58;;;;;;;6.88;5.97;;;20.00;99.90;;;;;;5024178;28;20060;-83
2021/06/20 01:58:24;;;;;;;5.55;5.05;;;20.00;99.90;;;;;;5041956;28;20053;-82
2021/06/20 02:00:52;;;;;;;5.65;4.78;;;20.00;99.90;;;;;;5044817;28;20021;-83
2021/06/20 02:03:23;;;;;;;6.22;5.20;;;20.00;99.90;;;;;;5041634;28;20034;-83
2021/06/20 02:05:49;;;;;;;4.70;4.05;;;20.00;99.90;;;;;;5026888;28;20026;-83
2021/06/20 02:08:19;;;;;;;6.72;4.80;;;20.10;99.90;;;;;;5043250;28;20037;-83
2021/06/20 02:10:46;;;;;;;;;;;20.00;99.90;;;;;;5027329;28;20089;-83
2021/06/20 02:13:11;;;;;;;6.80;4.60;;;20.00;99.90;;;;;;5041612;28;19925;-83
2021/06/20 02:15:37;;;;;;;6.45;5.43;;;19.90;99.90;;;;;;5026659;28;20033;-83
2021/06/20 02:18:04;;;;;;;8.20;6.63;;;19.90;99.90;;;;;;5041496;28;20026;-83
2021/06/20 02:20:30;;;;;;;8.00;5.60;;;19.90;99.90;;;;;;5040666;28;20107;-83
2021/06/20 02:22:56;;;;;;;7.03;5.45;;;19.90;99.90;;;;;;5026751;28;20034;-83
2021/06/20 02:25:22;;;;;;;7.13;4.72;;;19.90;99.90;;;;;;5041732;28;20033;-82
2021/06/20 02:27:51;;;;;;;6.65;5.47;;;19.80;99.90;;;;;;5024512;28;20025;-83
2021/06/20 02:30:18;;;;;;;5.85;4.90;;;19.90;99.90;;;;;;5044184;28;20041;-81
2021/06/20 02:32:44;;;;;;;4.78;3.80;;;19.90;99.90;;;;;;5045944;28;20041;-83
2021/06/20 02:35:11;;;;;;;5.15;4.13;;;19.90;99.90;;;;;;5048169;28;20032;-83
2021/06/20 02:37:39;;;;;;;4.78;3.70;;;19.90;99.90;;;;;;5030456;28;20033;-83
2021/06/20 02:40:07;;;;;;;4.68;3.80;;;19.90;99.90;;;;;;5011663;28;20032;-83
2021/06/20 02:42:33;;;;;;;6.47;3.83;;;19.90;99.90;;;;;;5048965;28;20030;-83
2021/06/20 02:44:58;;;;;;;4.78;3.67;;;20.00;99.90;;;;;;5029807;28;20020;-83
2021/06/20 02:47:24;;;;;;;5.78;3.92;;;20.00;99.90;;;;;;5044857;28;20136;-83
2021/06/20 02:49:50;;;;;;;4.53;4.05;;;20.00;99.90;;;;;;5042193;28;20077;-83
2021/06/20 02:52:16;;;;;;;4.28;3.80;;;20.00;99.90;;;;;;5043386;28;20054;-83
2021/06/20 02:54:49;;;;;;;6.13;4.72;;;20.00;99.90;;;;;;5033475;28;20394;-84
2021/06/20 02:57:21;;;;;;;4.57;3.80;;;20.10;99.90;;;;;;5043679;28;20033;-84
2021/06/20 02:59:48;;;;;;;5.00;4.50;;;20.10;99.90;;;;;;5043094;28;20017;-84
2021/06/20 03:02:14;;;;;;;5.97;4.65;;;20.20;99.90;;;;;;5039477;28;20026;-83
2021/06/20 03:04:40;;;;;;;7.30;5.90;;;20.10;99.90;;;;;;5044807;28;20045;-83
2021/06/20 03:07:06;;;;;;;6.15;5.10;;;20.20;99.90;;;;;;5024157;28;20053;-84
2021/06/20 03:09:34;;;;;;;7.50;5.22;;;20.20;99.90;;;;;;5040617;28;20034;-83
2021/06/20 03:12:00;;;;;;;7.03;5.65;;;20.20;99.90;;;;;;5044583;28;20092;-84
2021/06/20 03:14:26;;;;;;;9.00;6.63;;;20.30;99.90;;;;;;5029661;28;20033;-83
2021/06/20 03:16:51;;;;;;;9.10;6.63;;;20.20;99.90;;;;;;5044452;28;20143;-84
2021/06/20 03:19:17;;;;;;;11.60;7.88;;;20.20;99.90;;;;;;5043280;28;20045;-83
2021/06/20 03:21:43;;;;;;;8.32;7.53;;;20.20;99.90;;;;;;5044649;28;20029;-83
2021/06/20 03:24:09;;;;;;;8.15;6.53;;;20.20;99.90;;;;;;5043193;28;20056;-84
2021/06/20 03:26:35;;;;;;;12.23;7.95;;;20.20;99.90;;;;;;5029216;28;20446;-83
2021/06/20 03:29:02;;;;;;;8.77;7.70;;;20.20;99.90;;;;;;5026498;28;20034;-83
2021/06/20 03:31:28;;;;;;;9.60;8.43;;;20.20;99.90;;;;;;5026536;28;20036;-83
2021/06/20 03:33:57;;;;;;;8.43;7.20;;;20.20;99.90;;;;;;5029286;28;20029;-83
2021/06/20 03:36:23;;;;;;;9.77;7.70;;;20.20;99.90;;;;;;5047248;28;20039;-83
2021/06/20 03:39:09;;;;;;;11.57;9.35;;;20.20;99.90;;;;;;5029236;28;20025;-83
2021/06/20 03:41:35;;;;;;;14.40;11.32;;;20.20;99.90;;;;;;5041202;28;20038;-82
2021/06/20 03:44:00;;;;;;;12.95;9.35;;;20.20;99.90;;;;;;5040882;28;20029;-83
2021/06/20 03:46:26;;;;;;;18.23;15.63;;;20.20;99.90;;;;;;5012442;28;20026;-82
2021/06/20 03:48:52;;;;;;;13.73;12.25;;;20.20;99.90;;;;;;5022446;28;20114;-82
2021/06/20 03:51:17;;;;;;;16.00;14.30;;;20.20;99.90;;;;;;5010722;28;20038;-82
2021/06/20 03:53:46;;;;;;;24.17;18.77;;;20.20;99.90;;;;;;5042568;28;20057;-82
2021/06/20 03:56:12;;;;;;;25.55;20.05;;;20.10;99.90;;;;;;5044560;28;20029;-83
2021/06/20 03:58:38;;;;;;;26.85;21.55;;;20.00;99.90;;;;;;5043672;28;20034;-83
2021/06/20 04:01:04;;;;;;;23.95;18.33;;;20.00;99.90;;;;;;5039680;28;20052;-83
2021/06/20 04:03:30;;;;;;;28.92;22.45;;;20.00;99.90;;;;;;5026216;28;20461;-83
2021/06/20 04:05:56;;;;;;;30.60;23.83;;;19.90;99.90;;;;;;5042421;28;20029;-82
2021/06/20 04:08:21;;;;;;;37.88;27.45;;;19.90;99.90;;;;;;5025973;28;20036;-84
2021/06/20 04:10:47;;;;;;;33.40;23.98;;;19.70;99.90;;;;;;5028482;28;20064;-81
2021/06/20 04:13:13;;;;;;;40.88;27.90;;;19.70;99.90;;;;;;5028278;28;20037;-81
2021/06/20 04:15:39;;;;;;;39.95;26.92;;;19.60;99.90;;;;;;5022769;28;20097;-81
2021/06/20 04:18:05;;;;;;;28.52;20.73;;;19.50;99.90;;;;;;5025540;28;20060;-82
2021/06/20 04:20:31;;;;;;;31.95;23.73;;;19.50;99.90;;;;;;5025495;28;20089;-82
2021/06/20 04:22:57;;;;;;;29.77;22.40;;;19.60;99.90;;;;;;5046175;28;20030;-82
2021/06/20 04:25:23;;;;;;;36.88;26.63;;;19.60;99.90;;;;;;5040389;28;20084;-81
2021/06/20 04:27:49;;;;;;;35.40;25.10;;;19.50;99.90;;;;;;5043875;28;20033;-82
2021/06/20 04:30:17;;;;;;;29.73;22.02;;;19.40;99.90;;;;;;5041249;28;20025;-82
2021/06/20 04:32:44;;;;;;;39.65;28.77;;;19.40;99.90;;;;;;5042282;28;20037;-82
2021/06/20 04:35:13;;;;;;;40.13;28.15;;;19.30;99.90;;;;;;5041294;28;20101;-82
2021/06/20 04:37:40;;;;;;;41.10;28.48;;;19.30;99.90;;;;;;5043887;28;20100;-81
2021/06/20 04:40:09;;;;;;;27.02;20.17;;;19.30;99.90;;;;;;5021930;28;20037;-82
2021/06/20 04:42:37;;;;;;;25.95;19.08;;;19.40;99.90;;;;;;5021664;28;20025;-82
2021/06/20 04:45:04;;;;;;;35.60;24.88;;;19.40;99.90;;;;;;5022045;28;20394;-82
2021/06/20 04:47:30;;;;;;;33.42;24.05;;;19.30;99.90;;;;;;5041352;28;20029;-82
2021/06/20 04:49:56;;;;;;;34.47;23.85;;;19.40;99.90;;;;;;5041978;28;20533;-82
2021/06/20 04:52:22;;;;;;;30.52;21.95;;;19.40;99.90;;;;;;5042668;28;20029;-82
2021/06/20 04:54:51;;;;;;;33.40;24.38;;;19.40;99.90;;;;;;5023870;28;20363;-82
2021/06/20 04:57:22;;;;;;;39.63;25.83;;;19.30;99.90;;;;;;5024152;28;20037;-83
2021/06/20 04:59:49;;;;;;;37.30;26.98;;;19.20;99.90;;;;;;5041056;28;20033;-81
2021/06/20 05:02:15;;;;;;;37.10;25.85;;;19.30;99.90;;;;;;5026958;28;20021;-81
2021/06/20 05:04:41;;;;;;;26.70;19.52;;;19.20;99.90;;;;;;5024377;28;20053;-82
2021/06/20 05:07:07;;;;;;;32.92;24.33;;;19.20;99.90;;;;;;5025161;28;20036;-83
2021/06/20 05:09:34;;;;;;;40.05;26.25;;;19.10;99.90;;;;;;5007676;28;20040;-81
2021/06/20 05:12:00;;;;;;;36.28;24.98;;;19.10;99.90;;;;;;5044602;28;20048;-81
2021/06/20 05:14:25;;;;;;;40.40;28.52;;;19.10;99.90;;;;;;5026924;28;20029;-82
2021/06/20 05:16:52;;;;;;;34.58;23.38;;;18.90;99.90;;;;;;5023970;28;20029;-81
2021/06/20 05:19:17;;;;;;;33.72;22.50;;;19.00;99.90;;;;;;5027018;28;20088;-82
2021/06/20 05:21:43;;;;;;;30.92;21.85;;;19.10;99.90;;;;;;5038896;28;20493;-81
2021/06/20 05:24:09;;;;;;;29.23;20.92;;;19.10;99.90;;;;;;5023836;28;20056;-82
2021/06/20 05:26:35;;;;;;;34.20;22.45;;;19.10;99.90;;;;;;5044050;28;20065;-81
2021/06/20 05:29:01;;;;;;;31.88;22.35;;;19.10;99.90;;;;;;5041565;28;20085;-81
2021/06/20 05:31:27;;;;;;;33.42;23.00;;;19.10;99.90;;;;;;5026016;28;20053;-82
2021/06/20 05:33:52;;;;;;;32.70;21.27;;;19.10;99.90;;;;;;5041115;28;20101;-82
2021/06/20 05:36:18;;;;;;;34.53;23.90;;;19.10;99.90;;;;;;5044410;28;20026;-81
2021/06/20 05:38:44;;;;;;;37.00;25.02;;;19.10;99.90;;;;;;5043020;28;20051;-81
2021/06/20 05:41:10;;;;;;;36.08;25.23;;;19.10;99.90;;;;;;5044415;28;20029;-81
2021/06/20 05:43:36;;;;;;;29.92;21.40;;;19.20;99.90;;;;;;5037261;28;20103;-82
2021/06/20 05:46:02;;;;;;;31.88;23.52;;;19.20;99.90;;;;;;5039951;28;20069;-83
2021/06/20 05:48:28;;;;;;;33.63;23.65;;;19.20;99.90;;;;;;5009342;28;20036;-82
2021/06/20 05:50:54;;;;;;;33.08;23.77;;;19.40;99.90;;;;;;5041205;28;20092;-82
2021/06/20 05:53:19;;;;;;;28.92;20.33;;;19.50;99.90;;;;;;5044033;28;20095;-83
2021/06/20 05:55:45;;;;;;;33.45;22.92;;;19.60;99.90;;;;;;5020755;28;20025;-82
2021/06/20 05:58:11;;;;;;;28.20;19.58;;;19.50;99.90;;;;;;5026125;28;20033;-82
2021/06/20 06:00:37;;;;;;;34.80;23.25;;;19.60;99.90;;;;;;5039845;28;20025;-83
2021/06/20 06:03:03;;;;;;;38.60;25.83;;;19.60;99.90;;;;;;5023361;28;20029;-83
2021/06/20 06:05:28;;;;;;;29.85;20.25;;;19.50;99.90;;;;;;5039053;28;20018;-83
2021/06/20 06:07:55;;;;;;;31.38;22.40;;;19.60;99.90;;;;;;5024526;28;20029;-82
2021/06/20 06:10:21;;;;;;;37.15;24.55;;;19.50;99.90;;;;;;5042356;28;20089;-82
2021/06/20 06:12:48;;;;;;;31.30;20.92;;;19.40;99.90;;;;;;5047936;28;20091;-83
2021/06/20 06:15:14;;;;;;;30.92;21.73;;;19.50;99.90;;;;;;5013467;28;20113;-82
2021/06/20 06:17:40;;;;;;;24.67;17.35;;;19.40;99.90;;;;;;5027020;28;20033;-83
2021/06/20 06:20:06;;;;;;;35.25;23.88;;;19.40;99.90;;;;;;5027138;28;20037;-84
2021/06/20 06:22:31;;;;;;;34.70;21.75;;;19.30;99.90;;;;;;5027932;28;20083;-83
2021/06/20 06:24:58;;;;;;;28.85;20.42;;;19.40;99.90;;;;;;5028976;28;20021;-81
2021/06/20 06:27:23;;;;;;;28.88;18.40;;;19.50;99.90;;;;;;5046219;28;20076;-82
2021/06/20 06:29:49;;;;;;;26.83;18.35;;;19.60;99.90;;;;;;5044962;28;20030;-81
2021/06/20 06:32:15;;;;;;;28.25;16.75;;;19.70;99.90;;;;;;5028931;28;20096;-82
2021/06/20 06:34:40;;;;;;;24.90;18.02;;;19.70;99.90;;;;;;5025083;28;20026;-81
2021/06/20 06:37:06;;;;;;;23.95;16.08;;;19.70;99.90;;;;;;5023721;28;20493;-83
2021/06/20 06:39:33;;;;;;;25.13;17.17;;;19.80;99.90;;;;;;5047286;28;20093;-84
2021/06/20 06:42:00;;;;;;;25.38;16.15;;;19.70;99.90;;;;;;5047302;28;20098;-83
2021/06/20 06:44:26;;;;;;;24.55;17.55;;;19.60;99.90;;;;;;5046729;28;20028;-83
2021/06/20 06:46:52;;;;;;;24.38;16.67;;;19.60;99.90;;;;;;5043167;28;20132;-81
2021/06/20 06:49:18;;;;;;;19.77;15.15;;;19.60;99.90;;;;;;5041541;28;20029;-82
2021/06/20 06:51:44;;;;;;;23.17;15.73;;;19.50;99.90;;;;;;5039003;28;20379;-82
2021/06/20 06:54:10;;;;;;;17.10;12.00;;;19.60;99.90;;;;;;5041737;28;20025;-82
2021/06/20 06:56:35;;;;;;;21.08;16.63;;;19.70;99.90;;;;;;5026477;28;20029;-82
2021/06/20 06:59:02;;;;;;;20.30;13.45;;;19.80;99.90;;;;;;5044116;28;20025;-83
2021/06/20 07:01:28;;;;;;;22.55;15.55;;;19.90;99.90;;;;;;5037543;28;20033;-83
2021/06/20 07:03:54;;;;;;;17.65;12.48;;;20.00;99.90;;;;;;5023840;28;20484;-84
2021/06/20 07:06:21;;;;;;;16.67;11.38;;;20.20;99.90;;;;;;5035443;28;20116;-85
2021/06/20 07:08:48;;;;;;;18.17;12.90;;;20.30;99.90;;;;;;5042177;28;20033;-84
2021/06/20 07:11:14;;;;;;;14.98;12.23;;;20.40;99.90;;;;;;5037871;28;20044;-84
2021/06/20 07:13:40;;;;;;;22.45;16.23;;;21.00;99.90;;;;;;5020778;28;20045;-85
2021/06/20 07:16:06;;;;;;;16.98;11.88;;;20.70;99.90;;;;;;5002370;28;20019;-84
2021/06/20 07:18:32;;;;;;;16.67;10.90;;;21.00;99.90;;;;;;5020356;28;20030;-84
2021/06/20 07:20:57;;;;;;;16.40;10.75;;;21.00;99.90;;;;;;5038692;28;20029;-86
2021/06/20 07:23:23;;;;;;;18.33;11.68;;;20.90;99.90;;;;;;5039260;28;20021;-86
2021/06/20 07:25:49;;;;;;;15.98;11.98;;;20.90;99.90;;;;;;5040921;28;20483;-85
2021/06/20 07:28:15;;;;;;;18.33;13.32;;;21.10;99.90;;;;;;5026293;28;20026;-85
2021/06/20 07:30:40;;;;;;;22.80;16.83;;;21.00;99.90;;;;;;5042743;28;20052;-84
2021/06/20 07:33:06;;;;;;;15.75;12.20;;;20.80;99.90;;;;;;5020495;28;20041;-83
2021/06/20 07:35:32;;;;;;;16.20;12.15;;;21.10;99.90;;;;;;5024668;28;20029;-85
2021/06/20 07:37:58;;;;;;;14.50;10.25;;;21.10;99.90;;;;;;5041320;28;20029;-84
2021/06/20 07:40:24;;;;;;;16.48;12.32;;;21.00;99.90;;;;;;5039783;28;20026;-82
2021/06/20 07:42:49;;;;;;;16.70;12.25;;;20.80;99.90;;;;;;5039707;28;20040;-83
2021/06/20 07:45:16;;;;;;;18.27;13.57;;;20.70;99.90;;;;;;5004045;28;20025;-84
2021/06/20 07:47:42;;;;;;;16.00;12.13;;;20.50;99.90;;;;;;5040695;28;20054;-86
2021/06/20 07:50:11;;;;;;;17.65;13.07;;;20.60;99.90;;;;;;5039012;28;20036;-83
2021/06/20 07:52:38;;;;;;;17.13;12.77;;;20.60;99.90;;;;;;5022836;28;20042;-83
2021/06/20 07:55:05;;;;;;;13.77;11.07;;;20.50;99.90;;;;;;5025341;28;20041;-82
2021/06/20 07:57:31;;;;;;;14.63;10.27;;;20.50;99.90;;;;;;5025568;28;20036;-82
2021/06/20 07:59:57;;;;;;;16.45;11.68;;;20.50;99.90;;;;;;5046040;28;20060;-82
2021/06/20 08:02:23;;;;;;;15.18;11.75;;;20.50;99.90;;;;;;5041651;28;20037;-82
2021/06/20 08:04:48;;;;;;;12.40;9.18;;;20.50;99.90;;;;;;5043980;28;20037;-82
2021/06/20 08:07:15;;;;;;;17.17;11.55;;;20.60;99.90;;;;;;5042259;28;20037;-82
2021/06/20 08:09:42;;;;;;;13.57;8.57;;;20.80;99.90;;;;;;5041990;28;20059;-83
2021/06/20 08:12:08;;;;;;;13.63;9.10;;;21.20;99.90;;;;;;5038952;28;20046;-84
2021/06/20 08:14:35;;;;;;;8.68;6.18;;;21.70;99.90;;;;;;5038887;28;20022;-83
2021/06/20 08:17:02;;;;;;;8.13;6.15;;;21.70;99.90;;;;;;5010568;28;20461;-86
2021/06/20 08:19:27;;;;;;;9.40;6.97;;;22.40;99.90;;;;;;5044403;28;20044;-82
2021/06/20 08:21:53;;;;;;;11.63;9.57;;;22.70;99.90;;;;;;5044556;28;20034;-84
2021/06/20 08:24:19;;;;;;;10.63;7.55;;;22.10;99.90;;;;;;5022694;28;20061;-83
2021/06/20 08:26:45;;;;;;;11.68;7.97;;;22.40;99.90;;;;;;5011664;28;20552;-82
2021/06/20 08:29:12;;;;;;;8.15;6.43;;;22.50;99.90;;;;;;5025384;28;20034;-83
2021/06/20 08:31:38;;;;;;;11.00;9.43;;;22.90;99.90;;;;;;5008601;28;20525;-87
2021/06/20 08:34:07;;;;;;;12.20;8.93;;;21.90;99.90;;;;;;5025970;28;20032;-83
2021/06/20 08:36:32;;;;;;;13.18;9.18;;;21.40;99.90;;;;;;5024986;28;20026;-85
2021/06/20 08:38:58;;;;;;;9.27;7.30;;;21.10;99.90;;;;;;5026006;28;20034;-83
2021/06/20 08:41:25;;;;;;;10.63;7.28;;;21.20;99.90;;;;;;4992062;28;20041;-85
2021/06/20 08:43:51;;;;;;;10.65;8.90;;;21.70;99.90;;;;;;5008487;28;20036;-85
2021/06/20 08:46:20;;;;;;;11.82;8.55;;;21.20;99.90;;;;;;5036275;22;20037;-83
2021/06/20 08:48:46;;;;;;;7.05;4.97;;;21.20;99.90;;;;;;5062609;28;20056;-86
2021/06/20 08:51:12;;;;;;;8.98;7.28;;;21.60;99.90;;;;;;5082588;28;20043;-85
2021/06/20 08:53:37;;;;;;;9.27;6.45;;;21.30;99.90;;;;;;5084722;28;20040;-84
2021/06/20 08:56:03;;;;;;;5.78;4.22;;;21.40;99.90;;;;;;5066631;28;20051;-84
2021/06/20 08:58:34;;;;;;;7.35;5.28;;;21.80;99.90;;;;;;5068693;28;20036;-87
2021/06/20 09:01:05;;;;;;;7.50;5.97;;;21.90;99.90;;;;;;5068864;28;20031;-85
2021/06/20 09:03:39;;;;;;;5.50;4.18;;;21.80;99.90;;;;;;5084844;28;20037;-85
2021/06/20 09:06:20;;;;;;;6.65;4.72;;;22.60;99.90;;;;;;5085228;28;20036;-84
2021/06/20 09:08:54;;;;;;;7.78;5.78;;;23.20;99.90;;;;;;5084061;28;20076;-85
2021/06/20 09:11:50;;;;;;;8.00;5.80;;;22.40;99.90;;;;;;5083995;28;20135;-86
2021/06/20 09:14:16;;;;;;;8.77;6.47;;;22.10;99.90;;;;;;5071739;28;20112;-84
2021/06/20 09:16:54;;;;;;;8.13;6.25;;;21.70;99.90;;;;;;5067373;28;20037;-84
2021/06/20 09:19:33;;;;;;;9.88;6.10;;;21.80;99.90;;;;;;5084298;28;20100;-85
2021/06/20 09:22:04;;;;;;;9.23;6.50;;;21.70;99.90;;;;;;5084088;28;20032;-83
2021/06/20 09:24:31;;;;;;;11.05;6.55;;;21.90;99.90;;;;;;5084014;28;20031;-84
2021/06/20 09:26:57;;;;;;;9.85;6.93;;;21.50;99.90;;;;;;5083973;28;20036;-83
2021/06/20 09:29:33;;;;;;;9.65;7.50;;;21.20;99.90;;;;;;5084268;28;20020;-85
2021/06/20 09:32:02;;;;;;;9.63;6.80;;;21.80;99.90;;;;;;5067258;28;20078;-85
2021/06/20 09:34:28;;;;;;;8.65;7.07;;;22.10;99.90;;;;;;5067394;28;20070;-85
2021/06/20 09:37:01;;;;;;;6.15;4.55;;;22.30;99.90;;;;;;5083913;28;20041;-84
2021/06/20 09:39:29;;;;;;;9.00;6.97;;;22.90;99.90;;;;;;5067275;28;20036;-83
2021/06/20 09:42:04;;;;;;;6.80;5.45;;;22.30;99.90;;;;;;5066859;28;20044;-85
2021/06/20 09:44:33;;;;;;;8.38;6.18;;;22.70;99.90;;;;;;5083822;28;20038;-84
2021/06/20 09:46:58;;;;;;;7.68;6.00;;;22.40;99.90;;;;;;5066737;28;20074;-84
2021/06/20 09:49:28;;;;;;;6.68;5.38;;;22.30;99.90;;;;;;5067078;28;20029;-86
2021/06/20 09:51:55;;;;;;;7.63;6.43;;;22.20;99.90;;;;;;5067096;28;20148;-84
2021/06/20 09:54:28;;;;;;;7.20;5.20;;;22.10;99.90;;;;;;5083869;28;20468;-85
2021/06/20 09:56:54;;;;;;;8.38;5.55;;;22.10;99.90;;;;;;5083496;28;20039;-84
2021/06/20 09:59:33;;;;;;;9.70;7.40;;;22.50;99.90;;;;;;5083906;28;20048;-85
2021/06/20 10:02:09;;;;;;;9.73;7.25;;;22.10;99.90;;;;;;5067243;28;20568;-85
2021/06/20 10:04:37;;;;;;;7.72;5.57;;;21.90;99.90;;;;;;5084829;28;20024;-83
2021/06/20 10:07:07;;;;;;;7.00;5.53;;;22.20;99.90;;;;;;5066606;28;20465;-83
2021/06/20 10:09:33;;;;;;;7.28;5.88;;;22.50;99.90;;;;;;5083729;28;20033;-85
2021/06/20 10:11:59;;;;;;;7.90;5.60;;;22.10;99.90;;;;;;5066503;28;20033;-84
2021/06/20 10:14:26;;;;;;;5.20;3.58;;;22.30;99.90;;;;;;5083646;28;20439;-85
2021/06/20 10:16:55;;;;;;;6.40;4.63;;;22.70;99.90;;;;;;5066378;28;20138;-83
2021/06/20 10:19:24;;;;;;;6.10;4.28;;;22.60;99.90;;;;;;5083372;28;20033;-84
2021/06/20 10:22:00;;;;;;;5.60;3.92;;;22.60;99.90;;;;;;5066602;28;20041;-85
2021/06/20 10:24:26;;;;;;;6.85;4.97;;;22.40;99.90;;;;;;5084583;28;20086;-84
2021/06/20 10:26:51;;;;;;;3.83;2.88;;;22.40;99.90;;;;;;5066348;28;20028;-83
2021/06/20 10:29:29;;;;;;;4.15;3.28;;;23.10;99.90;;;;;;5066523;28;20028;-85
2021/06/20 10:31:57;;;;;;;5.90;4.28;;;23.60;99.90;;;;;;5099977;28;20036;-84
2021/06/20 10:34:23;;;;;;;7.22;4.43;;;23.10;99.90;;;;;;5100222;28;20037;-84
2021/06/20 10:36:52;;;;;;;5.53;3.75;;;22.90;99.90;;;;;;5083152;28;20028;-83
2021/06/20 10:39:18;;;;;;;4.37;3.17;;;23.40;99.90;;;;;;5066516;28;20354;-85
2021/06/20 10:41:44;;;;;;;5.20;3.28;;;23.70;99.90;;;;;;5084363;28;20270;-84
2021/06/20 10:44:10;;;;;;;6.68;4.80;;;23.60;99.90;;;;;;5066481;28;20020;-83
2021/06/20 10:46:38;;;;;;;3.05;2.08;;;23.10;99.90;;;;;;5105404;22;20087;-83
2021/06/20 10:49:18;;;;;;;6.00;3.75;;;23.60;99.90;;;;;;5064867;28;20037;-85
2021/06/20 10:51:45;;;;;;;7.05;4.60;;;23.00;99.90;;;;;;5063399;28;20040;-84
2021/06/20 10:54:27;;;;;;;7.05;4.28;;;22.50;99.90;;;;;;5068123;28;20032;-85
2021/06/20 10:56:58;;;;;;;3.95;2.92;;;22.70;99.90;;;;;;5066987;28;20047;-83
2021/06/20 10:59:26;;;;;;;4.78;3.17;;;24.10;99.90;;;;;;5050450;28;20029;-84
2021/06/20 11:01:52;;;;;;;3.83;3.28;;;24.20;99.90;;;;;;5068181;28;20059;-85
2021/06/20 11:04:17;;;;;;;5.00;3.30;;;23.50;99.90;;;;;;5050443;28;20480;-84
2021/06/20 11:06:54;;;;;;;3.80;2.97;;;23.50;99.90;;;;;;5049903;28;20033;-84
2021/06/20 11:09:24;;;;;;;4.47;2.97;;;23.90;99.90;;;;;;5068050;28;20025;-83
2021/06/20 11:11:58;;;;;;;5.88;3.33;;;22.90;99.90;;;;;;5066637;28;20037;-85
2021/06/20 11:14:23;;;;;;;3.95;1.95;;;23.10;99.90;;;;;;5066349;28;20036;-84
2021/06/20 11:16:51;;;;;;;3.08;2.20;;;23.50;99.90;;;;;;5048475;28;20029;-83
2021/06/20 11:19:29;;;;;;;5.25;2.72;;;23.50;99.90;;;;;;5065644;28;20033;-82
2021/06/20 11:21:58;;;;;;;2.90;2.28;;;23.10;99.90;;;;;;5066198;28;20393;-83
2021/06/20 11:24:33;;;;;;;4.05;2.22;;;22.80;99.90;;;;;;5049481;28;20025;-82
2021/06/20 11:27:07;;;;;;;2.95;2.10;;;22.90;99.90;;;;;;5049423;28;20043;-83
2021/06/20 11:29:45;;;;;;;3.80;1.70;;;22.80;99.90;;;;;;5049536;28;20461;-82
2021/06/20 11:32:24;;;;;;;4.80;2.20;;;23.00;99.90;;;;;;5049072;28;20414;-82
2021/06/20 11:34:57;;;;;;;3.75;2.42;;;22.90;99.90;;;;;;5065985;28;20029;-83
2021/06/20 11:37:27;;;;;;;3.33;1.30;;;22.90;99.90;;;;;;5049371;28;20059;-83
2021/06/20 11:40:16;;;;;;;2.45;1.20;;;23.90;99.90;;;;;;5067406;28;20029;-83
2021/06/20 11:42:45;;;;;;;3.88;1.90;;;24.70;99.90;;;;;;5049341;28;20087;-84
2021/06/20 11:45:19;;;;;;;2.72;1.27;;;25.50;99.90;;;;;;5049217;28;20037;-84
2021/06/20 11:47:49;;;;;;;3.10;1.58;;;25.10;99.90;;;;;;5048659;28;20052;-83
2021/06/20 11:50:27;;;;;;;2.97;1.38;;;24.30;99.90;;;;;;5059702;28;20032;-84
2021/06/20 11:53:04;;;;;;;52.03;16.80;;;24.80;99.90;;;;;;5059568;28;20361;-83
2021/06/20 11:55:43;;;;;;;5.82;3.03;;;25.20;99.90;;;;;;5065932;28;20033;-82
2021/06/20 11:58:12;;;;;;;3.20;1.58;;;24.40;99.90;;;;;;5048977;28;20067;-83
2021/06/20 12:00:40;;;;;;;5.47;1.85;;;24.20;99.90;;;;;;5048863;28;20091;-79
2021/06/20 12:03:11;;;;;;;8.68;3.92;;;23.60;99.90;;;;;;5066954;28;20029;-81
2021/06/20 12:05:45;;;;;;;18.90;7.00;;;24.00;99.90;;;;;;5049279;28;20067;-85
2021/06/20 12:08:11;;;;;;;7.72;2.45;;;24.50;99.90;;;;;;5049083;28;20165;-85
2021/06/20 12:10:40;;;;;;;2.47;1.08;;;24.30;99.90;;;;;;5048040;28;20044;-84
2021/06/20 12:13:07;;;;;;;2.22;0.63;;;24.30;99.90;;;;;;5058091;28;20033;-85
2021/06/20 12:15:35;;;;;;;1.40;0.60;;;24.10;99.90;;;;;;5029178;28;20113;-84
2021/06/20 12:18:08;;;;;;;1.75;0.80;;;24.20;99.90;;;;;;5029501;28;20029;-83
2021/06/20 12:20:37;;;;;;;1.73;0.70;;;24.00;99.90;;;;;;5048016;28;20049;-84
2021/06/20 12:23:05;;;;;;;1.70;0.90;;;23.80;99.90;;;;;;5045948;28;20041;-84
2021/06/20 12:25:50;;;;;;;1.75;0.73;;;24.00;99.90;;;;;;5071478;28;20040;-85
2021/06/20 12:28:19;;;;;;;1.30;0.60;;;23.90;99.90;;;;;;5086820;28;20028;-84
2021/06/20 12:30:49;;;;;;;1.10;0.57;;;23.80;99.90;;;;;;5085617;28;20502;-85
2021/06/20 12:33:17;;;;;;;2.05;0.65;;;23.80;99.90;;;;;;5069871;28;20037;-86
2021/06/20 12:36:01;;;;;;;1.58;0.60;;;24.10;99.90;;;;;;5065680;28;20033;-84
2021/06/20 12:38:34;;;;;;;1.10;0.60;;;24.50;99.90;;;;;;5049086;28;20345;-86
2021/06/20 12:41:00;;;;;;;3.05;0.60;;;24.50;99.90;;;;;;5065962;28;20029;-85
2021/06/20 12:43:27;;;;;;;2.40;0.57;;;24.70;99.90;;;;;;5064740;28;20040;-85
2021/06/20 12:46:09;;;;;;;1.20;0.50;;;25.80;99.90;;;;;;5048624;28;20029;-83
2021/06/20 12:48:35;;;;;;;1.02;0.50;;;26.50;99.90;;;;;;5065803;28;20080;-85
2021/06/20 12:51:02;;;;;;;1.08;0.50;;;26.40;99.90;;;;;;5066805;28;20025;-81
2021/06/20 12:53:33;;;;;;;0.98;0.40;;;26.60;99.90;;;;;;5065132;28;20063;-83
2021/06/20 12:56:01;;;;;;;1.30;0.50;;;26.50;99.90;;;;;;5065290;28;20032;-82
2021/06/20 12:58:26;;;;;;;1.10;0.50;;;26.90;99.90;;;;;;5048089;28;20044;-82
2021/06/20 13:01:04;;;;;;;1.10;0.47;;;26.50;99.90;;;;;;5064998;28;20037;-84
2021/06/20 13:03:31;;;;;;;1.10;0.50;;;26.90;99.90;;;;;;5048910;28;20080;-82
2021/06/20 13:05:58;;;;;;;1.00;0.30;;;26.70;99.90;;;;;;5065036;28;20057;-85
2021/06/20 13:08:30;;;;;;;1.70;0.50;;;26.50;99.90;;;;;;5048382;28;20087;-85
2021/06/20 13:10:55;;;;;;;0.82;0.43;;;25.80;99.90;;;;;;5048191;28;20029;-85
2021/06/20 13:13:21;;;;;;;1.92;0.60;;;26.40;99.90;;;;;;5064217;28;20051;-85
2021/06/20 13:15:48;;;;;;;2.03;0.50;;;26.40;99.90;;;;;;5064202;28;20032;-82
2021/06/20 13:18:15;;;;;;;1.00;0.40;;;26.10;99.90;;;;;;5065139;28;20037;-84